Attica, NY

10:07 AM EDT on July 25, 2016 (GMT -0400)
South of village | | Change Station

Elev 1007 ft 42.84 °N, 78.29 °W | Updated 20 seconds ago

Light Rain
Light Rain
69.6 °F
Feels Like 69.6 °F
N
2.2
Wind Variable Wind from SW
Gusts 3.7 mph

Today
High -- | Low -- °F
--% Chance of Precip.
Yesterday
High -- | Low -- °F
Precip. -- in
Pressure 29.89 in
Visibility 10.0 miles
Clouds Few 3200 ft
Scattered Clouds 7000 ft
Mostly Cloudy 10000 ft
Overcast 15000 ft
Dew Point 69 °F
Humidity 98%
Rainfall 1.77 in
Snow Depth Not available.
5:57 AM 8:40 PM
Waning Gibbous, 65% visible
METAR KBUF 251354Z 17010KT 10SM -RA FEW032 SCT070 BKN100 OVC150 22/20 A2990 RMK AO2 TSE23 SLP121 TS MOVD E OCNL LTGIC DSNT NW CB DSNT NW MOV E P0005 T02170200
Pressure 29.89 in
Visibility 10.0 miles
Clouds Few 3200 ft
Scattered Clouds 7000 ft
Mostly Cloudy 10000 ft
Overcast 15000 ft
Dew Point 69 °F
Humidity 98%
Rainfall 1.77 in
Snow Depth Not available.
5:57 AM 8:40 PM
Waning Gibbous, 65% visible
METAR KBUF 251354Z 17010KT 10SM -RA FEW032 SCT070 BKN100 OVC150 22/20 A2990 RMK AO2 TSE23 SLP121 TS MOVD E OCNL LTGIC DSNT NW CB DSNT NW MOV E P0005 T02170200

10-Day Weather Forecast

Almanac

Astronomy

Jul. 25, 2016 Rise Set
Actual Time
Civil Twilight
Nautical Twilight
Astronomical Twilight
Moon
Length of Visible Light
Length of Day
Tomorrow will be .
, % of the Moon is Illuminated

Today's Extremes

State Highs State Lows

Community

WunderPhotos

Upload Photos

1,927,300 photos uploaded!

WunderBlog® & News

Nearby

Air Quality

  Air Quality AQ Index Pollutant
Not available.

Snow Depth

Station Depth Elevation

Earthquake Activity

City Distance Mag. Time & Date
Minimum magnitude displayed is 2.5.

Coastal Water Temperatures

Place Temperature

Stations

Nearby Weather Stations

Station Location Temp. Windchill Dew Point Humidity Wind Precip. Elev Updated Type
                   

Watches & Warnings

There are currently no watches in effect.